Nelson, Wisconsin
Current Conditions -  °F | °C
As of 2:11 PM on Friday 24 Oct 2014 (Local Time) from KRGK Reporting Station
Haze Haze  
Wind Chill: 59°   Ceiling: 1100
Heat Index: 59°   Visibility: 2.5mi
Dew Point: 55°   Wind: 5mph
Humidity: 88%   Direction: 210°SSW
Pressure: 29.84"   Gusts: NA
Location:  44.42°N, 92.01°W
Report Text: KRGK 241911Z AUTO 21004KT 2 1/2SM BR OVC011 15/13 A2984 RMK AO2
Loading
Personal Weather Stations






























Interactive Weather Map
Tropical Storm Tracking
New forecast layout! Learn more

10-Day Weather Forecast

Advertisements
Track Severe Weather on mobile